sensor_id;sensor_type;location;lat;lon;timestamp;P1;durP1;ratioP1;P2;durP2;ratioP2
64669;SDS011;51080;51.690;5.174;2023-02-18T00:01:21;49.40;;;25.20;;
64669;SDS011;51080;51.690;5.174;2023-02-18T00:07:07;48.50;;;25.20;;
64669;SDS011;51080;51.690;5.174;2023-02-18T00:12:51;46.80;;;25.30;;
64669;SDS011;51080;51.690;5.174;2023-02-18T00:18:34;46.80;;;25.30;;
64669;SDS011;51080;51.690;5.174;2023-02-18T00:24:19;49.70;;;24.80;;
64669;SDS011;51080;51.690;5.174;2023-02-18T00:30:04;48.80;;;23.90;;
64669;SDS011;51080;51.690;5.174;2023-02-18T00:35:48;48.20;;;24.80;;
64669;SDS011;51080;51.690;5.174;2023-02-18T00:41:34;47.00;;;24.50;;
64669;SDS011;51080;51.690;5.174;2023-02-18T00:47:19;51.70;;;25.10;;
64669;SDS011;51080;51.690;5.174;2023-02-18T00:53:04;47.70;;;24.50;;
64669;SDS011;51080;51.690;5.174;2023-02-18T00:58:49;48.70;;;25.20;;
64669;SDS011;51080;51.690;5.174;2023-02-18T01:04:34;49.80;;;24.80;;
64669;SDS011;51080;51.690;5.174;2023-02-18T01:10:19;46.20;;;24.60;;
64669;SDS011;51080;51.690;5.174;2023-02-18T01:16:03;47.10;;;23.60;;
64669;SDS011;51080;51.690;5.174;2023-02-18T01:21:48;44.70;;;23.20;;
64669;SDS011;51080;51.690;5.174;2023-02-18T01:27:33;42.00;;;22.60;;
64669;SDS011;51080;51.690;5.174;2023-02-18T01:33:16;47.70;;;25.30;;
64669;SDS011;51080;51.690;5.174;2023-02-18T01:39:03;50.60;;;25.20;;
64669;SDS011;51080;51.690;5.174;2023-02-18T01:44:48;49.00;;;24.20;;
64669;SDS011;51080;51.690;5.174;2023-02-18T01:50:34;47.40;;;23.90;;
64669;SDS011;51080;51.690;5.174;2023-02-18T02:02:26;41.60;;;23.10;;
64669;SDS011;51080;51.690;5.174;2023-02-18T02:08:10;44.10;;;22.30;;
64669;SDS011;51080;51.690;5.174;2023-02-18T02:20:16;42.00;;;22.50;;
64669;SDS011;51080;51.690;5.174;2023-02-18T02:26:26;42.90;;;23.00;;
64669;SDS011;51080;51.690;5.174;2023-02-18T02:38:39;54.30;;;28.60;;
64669;SDS011;51080;51.690;5.174;2023-02-18T02:44:41;65.60;;;31.70;;
64669;SDS011;51080;51.690;5.174;2023-02-18T02:56:38;85.40;;;36.10;;
64669;SDS011;51080;51.690;5.174;2023-02-18T03:02:33;79.80;;;33.50;;
64669;SDS011;51080;51.690;5.174;2023-02-18T03:08:32;74.90;;;29.40;;
64669;SDS011;51080;51.690;5.174;2023-02-18T03:14:35;77.20;;;28.30;;
64669;SDS011;51080;51.690;5.174;2023-02-18T03:20:25;67.10;;;28.20;;
64669;SDS011;51080;51.690;5.174;2023-02-18T03:26:15;58.10;;;25.30;;
64669;SDS011;51080;51.690;5.174;2023-02-18T03:32:04;64.60;;;25.60;;
64669;SDS011;51080;51.690;5.174;2023-02-18T03:37:54;59.00;;;25.00;;
64669;SDS011;51080;51.690;5.174;2023-02-18T03:43:50;59.10;;;23.50;;
64669;SDS011;51080;51.690;5.174;2023-02-18T03:49:35;63.00;;;23.60;;
64669;SDS011;51080;51.690;5.174;2023-02-18T03:55:20;45.50;;;18.70;;
64669;SDS011;51080;51.690;5.174;2023-02-18T04:01:04;42.10;;;16.60;;
64669;SDS011;51080;51.690;5.174;2023-02-18T04:06:49;41.40;;;17.00;;
64669;SDS011;51080;51.690;5.174;2023-02-18T04:12:33;44.00;;;18.00;;
64669;SDS011;51080;51.690;5.174;2023-02-18T04:18:17;33.80;;;17.10;;
64669;SDS011;51080;51.690;5.174;2023-02-18T04:24:02;33.90;;;16.00;;
64669;SDS011;51080;51.690;5.174;2023-02-18T04:29:48;36.10;;;17.60;;
64669;SDS011;51080;51.690;5.174;2023-02-18T04:35:32;31.30;;;16.00;;
64669;SDS011;51080;51.690;5.174;2023-02-18T04:41:16;29.10;;;15.10;;
64669;SDS011;51080;51.690;5.174;2023-02-18T04:47:01;29.00;;;14.50;;
64669;SDS011;51080;51.690;5.174;2023-02-18T04:52:47;29.70;;;14.70;;
64669;SDS011;51080;51.690;5.174;2023-02-18T04:58:31;25.50;;;13.00;;
64669;SDS011;51080;51.690;5.174;2023-02-18T05:04:17;25.50;;;13.00;;
64669;SDS011;51080;51.690;5.174;2023-02-18T05:10:02;28.60;;;13.20;;
64669;SDS011;51080;51.690;5.174;2023-02-18T05:15:47;27.70;;;13.50;;
64669;SDS011;51080;51.690;5.174;2023-02-18T05:21:32;24.00;;;11.70;;
64669;SDS011;51080;51.690;5.174;2023-02-18T05:27:16;20.60;;;10.40;;
64669;SDS011;51080;51.690;5.174;2023-02-18T05:33:01;21.20;;;10.70;;
64669;SDS011;51080;51.690;5.174;2023-02-18T05:38:44;20.20;;;9.80;;
64669;SDS011;51080;51.690;5.174;2023-02-18T05:44:29;16.40;;;8.30;;
64669;SDS011;51080;51.690;5.174;2023-02-18T05:50:13;16.30;;;8.40;;
64669;SDS011;51080;51.690;5.174;2023-02-18T05:55:57;16.10;;;7.60;;
64669;SDS011;51080;51.690;5.174;2023-02-18T06:01:41;14.70;;;7.60;;
64669;SDS011;51080;51.690;5.174;2023-02-18T06:07:55;19.50;;;8.70;;
64669;SDS011;51080;51.690;5.174;2023-02-18T06:13:39;17.50;;;8.20;;
64669;SDS011;51080;51.690;5.174;2023-02-18T06:19:23;18.10;;;7.70;;
64669;SDS011;51080;51.690;5.174;2023-02-18T06:25:37;15.00;;;7.00;;
64669;SDS011;51080;51.690;5.174;2023-02-18T06:31:51;14.50;;;6.70;;
64669;SDS011;51080;51.690;5.174;2023-02-18T06:37:36;16.40;;;6.50;;
64669;SDS011;51080;51.690;5.174;2023-02-18T06:43:21;14.10;;;6.10;;
64669;SDS011;51080;51.690;5.174;2023-02-18T06:49:07;16.40;;;6.50;;
64669;SDS011;51080;51.690;5.174;2023-02-18T06:54:51;17.40;;;7.00;;
64669;SDS011;51080;51.690;5.174;2023-02-18T07:00:36;14.20;;;6.60;;
64669;SDS011;51080;51.690;5.174;2023-02-18T07:06:23;10.40;;;5.50;;
64669;SDS011;51080;51.690;5.174;2023-02-18T07:12:08;14.30;;;6.40;;
64669;SDS011;51080;51.690;5.174;2023-02-18T07:17:53;13.90;;;6.80;;
64669;SDS011;51080;51.690;5.174;2023-02-18T07:24:07;18.30;;;8.50;;
64669;SDS011;51080;51.690;5.174;2023-02-18T07:29:52;25.30;;;11.20;;
64669;SDS011;51080;51.690;5.174;2023-02-18T07:35:35;26.80;;;11.90;;
64669;SDS011;51080;51.690;5.174;2023-02-18T07:41:20;28.00;;;11.80;;
64669;SDS011;51080;51.690;5.174;2023-02-18T07:47:07;30.00;;;12.20;;
64669;SDS011;51080;51.690;5.174;2023-02-18T07:52:56;33.50;;;13.10;;
64669;SDS011;51080;51.690;5.174;2023-02-18T07:58:41;29.50;;;12.60;;
64669;SDS011;51080;51.690;5.174;2023-02-18T08:04:26;33.80;;;12.60;;
64669;SDS011;51080;51.690;5.174;2023-02-18T08:10:10;26.10;;;10.50;;
64669;SDS011;51080;51.690;5.174;2023-02-18T08:15:55;34.30;;;10.70;;
64669;SDS011;51080;51.690;5.174;2023-02-18T08:21:40;24.40;;;8.50;;
64669;SDS011;51080;51.690;5.174;2023-02-18T08:27:25;25.10;;;8.20;;
64669;SDS011;51080;51.690;5.174;2023-02-18T08:33:08;22.40;;;7.70;;
64669;SDS011;51080;51.690;5.174;2023-02-18T08:39:22;28.80;;;7.90;;
64669;SDS011;51080;51.690;5.174;2023-02-18T08:45:07;21.40;;;7.20;;
64669;SDS011;51080;51.690;5.174;2023-02-18T08:50:52;20.60;;;6.00;;
64669;SDS011;51080;51.690;5.174;2023-02-18T08:56:36;24.20;;;6.80;;
64669;SDS011;51080;51.690;5.174;2023-02-18T09:02:20;21.70;;;5.90;;
64669;SDS011;51080;51.690;5.174;2023-02-18T09:08:35;23.60;;;5.20;;
64669;SDS011;51080;51.690;5.174;2023-02-18T09:14:20;16.60;;;4.70;;
64669;SDS011;51080;51.690;5.174;2023-02-18T09:20:05;15.00;;;4.70;;
64669;SDS011;51080;51.690;5.174;2023-02-18T09:25:51;20.50;;;5.50;;
64669;SDS011;51080;51.690;5.174;2023-02-18T09:32:06;20.00;;;4.70;;
64669;SDS011;51080;51.690;5.174;2023-02-18T09:38:21;16.00;;;4.40;;
64669;SDS011;51080;51.690;5.174;2023-02-18T09:50:46;15.90;;;3.70;;
64669;SDS011;51080;51.690;5.174;2023-02-18T09:57:05;14.70;;;3.70;;
64669;SDS011;51080;51.690;5.174;2023-02-18T10:03:06;14.60;;;3.90;;
64669;SDS011;51080;51.690;5.174;2023-02-18T10:08:56;17.90;;;3.80;;
64669;SDS011;51080;51.690;5.174;2023-02-18T10:14:54;11.10;;;3.40;;
64669;SDS011;51080;51.690;5.174;2023-02-18T10:20:40;19.20;;;4.50;;
64669;SDS011;51080;51.690;5.174;2023-02-18T10:26:25;17.80;;;3.90;;
64669;SDS011;51080;51.690;5.174;2023-02-18T10:38:19;9.30;;;3.30;;
64669;SDS011;51080;51.690;5.174;2023-02-18T10:50:47;10.30;;;3.90;;
64669;SDS011;51080;51.690;5.174;2023-02-18T10:56:39;10.50;;;3.90;;
64669;SDS011;51080;51.690;5.174;2023-02-18T11:09:38;10.00;;;2.90;;
64669;SDS011;51080;51.690;5.174;2023-02-18T11:15:24;11.60;;;3.30;;
64669;SDS011;51080;51.690;5.174;2023-02-18T11:27:08;7.90;;;3.10;;
64669;SDS011;51080;51.690;5.174;2023-02-18T11:32:57;9.80;;;2.80;;
64669;SDS011;51080;51.690;5.174;2023-02-18T11:38:47;11.90;;;3.30;;
64669;SDS011;51080;51.690;5.174;2023-02-18T11:45:26;10.60;;;2.70;;
64669;SDS011;51080;51.690;5.174;2023-02-18T11:51:17;8.20;;;2.50;;
64669;SDS011;51080;51.690;5.174;2023-02-18T11:57:05;10.30;;;2.90;;
64669;SDS011;51080;51.690;5.174;2023-02-18T12:02:54;9.10;;;2.30;;
64669;SDS011;51080;51.690;5.174;2023-02-18T12:08:46;8.40;;;2.40;;
64669;SDS011;51080;51.690;5.174;2023-02-18T12:15:03;8.00;;;2.10;;
64669;SDS011;51080;51.690;5.174;2023-02-18T12:20:53;12.00;;;2.30;;
64669;SDS011;51080;51.690;5.174;2023-02-18T12:33:46;9.80;;;2.20;;
64669;SDS011;51080;51.690;5.174;2023-02-18T12:39:54;9.20;;;2.60;;
64669;SDS011;51080;51.690;5.174;2023-02-18T13:04:51;9.00;;;2.10;;
64669;SDS011;51080;51.690;5.174;2023-02-18T13:10:55;9.40;;;2.50;;
64669;SDS011;51080;51.690;5.174;2023-02-18T13:16:57;8.80;;;2.20;;
64669;SDS011;51080;51.690;5.174;2023-02-18T13:22:44;10.10;;;2.80;;
64669;SDS011;51080;51.690;5.174;2023-02-18T13:40:23;7.40;;;2.30;;
64669;SDS011;51080;51.690;5.174;2023-02-18T13:46:16;9.90;;;3.00;;
64669;SDS011;51080;51.690;5.174;2023-02-18T13:52:02;8.40;;;2.30;;
64669;SDS011;51080;51.690;5.174;2023-02-18T13:57:48;9.30;;;2.60;;
64669;SDS011;51080;51.690;5.174;2023-02-18T14:09:35;9.40;;;2.40;;
64669;SDS011;51080;51.690;5.174;2023-02-18T14:21:20;9.40;;;2.60;;
64669;SDS011;51080;51.690;5.174;2023-02-18T14:27:08;8.80;;;2.60;;
64669;SDS011;51080;51.690;5.174;2023-02-18T14:32:58;9.40;;;2.40;;
64669;SDS011;51080;51.690;5.174;2023-02-18T14:45:12;7.70;;;2.50;;
64669;SDS011;51080;51.690;5.174;2023-02-18T14:51:03;10.00;;;2.70;;
64669;SDS011;51080;51.690;5.174;2023-02-18T14:56:55;7.80;;;2.70;;
64669;SDS011;51080;51.690;5.174;2023-02-18T15:02:46;8.50;;;2.80;;
64669;SDS011;51080;51.690;5.174;2023-02-18T15:08:35;9.80;;;2.70;;
64669;SDS011;51080;51.690;5.174;2023-02-18T15:14:23;10.70;;;2.80;;
64669;SDS011;51080;51.690;5.174;2023-02-18T15:20:11;6.50;;;2.50;;
64669;SDS011;51080;51.690;5.174;2023-02-18T15:25:57;11.10;;;2.80;;
64669;SDS011;51080;51.690;5.174;2023-02-18T15:31:42;7.70;;;2.70;;
64669;SDS011;51080;51.690;5.174;2023-02-18T15:37:26;8.30;;;2.70;;
64669;SDS011;51080;51.690;5.174;2023-02-18T15:43:14;10.20;;;2.60;;
64669;SDS011;51080;51.690;5.174;2023-02-18T15:49:01;11.30;;;2.90;;
64669;SDS011;51080;51.690;5.174;2023-02-18T15:54:50;8.80;;;2.60;;
64669;SDS011;51080;51.690;5.174;2023-02-18T16:00:38;13.30;;;4.60;;
64669;SDS011;51080;51.690;5.174;2023-02-18T16:06:24;11.70;;;3.30;;
64669;SDS011;51080;51.690;5.174;2023-02-18T16:12:25;9.70;;;3.00;;
64669;SDS011;51080;51.690;5.174;2023-02-18T16:30:15;12.20;;;2.80;;
64669;SDS011;51080;51.690;5.174;2023-02-18T16:36:01;9.80;;;2.90;;
64669;SDS011;51080;51.690;5.174;2023-02-18T16:41:45;11.60;;;3.20;;
64669;SDS011;51080;51.690;5.174;2023-02-18T16:47:30;11.80;;;3.30;;
64669;SDS011;51080;51.690;5.174;2023-02-18T16:53:18;14.60;;;3.40;;
64669;SDS011;51080;51.690;5.174;2023-02-18T16:59:03;17.30;;;4.00;;
64669;SDS011;51080;51.690;5.174;2023-02-18T17:04:48;15.80;;;5.00;;
64669;SDS011;51080;51.690;5.174;2023-02-18T17:10:32;12.90;;;5.20;;
64669;SDS011;51080;51.690;5.174;2023-02-18T17:16:18;17.10;;;6.40;;
64669;SDS011;51080;51.690;5.174;2023-02-18T17:22:04;18.80;;;7.10;;
64669;SDS011;51080;51.690;5.174;2023-02-18T17:27:49;15.20;;;8.70;;
64669;SDS011;51080;51.690;5.174;2023-02-18T17:33:33;24.80;;;10.30;;
64669;SDS011;51080;51.690;5.174;2023-02-18T17:39:17;21.50;;;11.70;;
64669;SDS011;51080;51.690;5.174;2023-02-18T17:45:35;28.60;;;12.80;;
64669;SDS011;51080;51.690;5.174;2023-02-18T17:51:26;26.50;;;14.60;;
64669;SDS011;51080;51.690;5.174;2023-02-18T17:57:13;26.40;;;14.80;;
64669;SDS011;51080;51.690;5.174;2023-02-18T18:02:59;31.50;;;14.90;;
64669;SDS011;51080;51.690;5.174;2023-02-18T18:08:44;30.00;;;13.60;;
64669;SDS011;51080;51.690;5.174;2023-02-18T18:14:33;25.80;;;14.30;;
64669;SDS011;51080;51.690;5.174;2023-02-18T18:20:21;28.60;;;14.80;;
64669;SDS011;51080;51.690;5.174;2023-02-18T18:26:09;31.30;;;15.50;;
64669;SDS011;51080;51.690;5.174;2023-02-18T18:31:54;32.20;;;15.90;;
64669;SDS011;51080;51.690;5.174;2023-02-18T18:37:39;28.60;;;15.90;;
64669;SDS011;51080;51.690;5.174;2023-02-18T18:43:28;29.60;;;16.30;;
64669;SDS011;51080;51.690;5.174;2023-02-18T18:49:14;29.70;;;16.00;;
64669;SDS011;51080;51.690;5.174;2023-02-18T18:54:58;27.30;;;15.50;;
64669;SDS011;51080;51.690;5.174;2023-02-18T19:00:43;31.90;;;16.50;;
64669;SDS011;51080;51.690;5.174;2023-02-18T19:06:31;31.40;;;16.10;;
64669;SDS011;51080;51.690;5.174;2023-02-18T19:12:17;33.20;;;16.10;;
64669;SDS011;51080;51.690;5.174;2023-02-18T19:18:02;27.10;;;15.10;;
64669;SDS011;51080;51.690;5.174;2023-02-18T19:23:47;33.30;;;16.90;;
64669;SDS011;51080;51.690;5.174;2023-02-18T19:29:32;33.70;;;15.90;;
64669;SDS011;51080;51.690;5.174;2023-02-18T19:35:16;31.30;;;16.70;;
64669;SDS011;51080;51.690;5.174;2023-02-18T19:41:13;39.50;;;18.50;;
64669;SDS011;51080;51.690;5.174;2023-02-18T19:46:59;35.50;;;17.70;;
64669;SDS011;51080;51.690;5.174;2023-02-18T19:52:43;36.60;;;19.10;;
64669;SDS011;51080;51.690;5.174;2023-02-18T19:58:27;35.80;;;19.00;;
64669;SDS011;51080;51.690;5.174;2023-02-18T20:04:12;35.60;;;19.10;;
64669;SDS011;51080;51.690;5.174;2023-02-18T20:09:56;37.80;;;19.60;;
64669;SDS011;51080;51.690;5.174;2023-02-18T20:15:40;35.00;;;18.80;;
64669;SDS011;51080;51.690;5.174;2023-02-18T20:21:25;34.40;;;17.50;;
64669;SDS011;51080;51.690;5.174;2023-02-18T20:27:10;37.70;;;16.80;;
64669;SDS011;51080;51.690;5.174;2023-02-18T20:32:55;35.90;;;17.60;;
64669;SDS011;51080;51.690;5.174;2023-02-18T20:38:39;31.60;;;17.30;;
64669;SDS011;51080;51.690;5.174;2023-02-18T20:44:25;30.50;;;16.30;;
64669;SDS011;51080;51.690;5.174;2023-02-18T20:50:09;33.40;;;17.00;;
64669;SDS011;51080;51.690;5.174;2023-02-18T20:55:54;35.30;;;17.10;;
64669;SDS011;51080;51.690;5.174;2023-02-18T21:01:39;34.10;;;18.60;;
64669;SDS011;51080;51.690;5.174;2023-02-18T21:07:25;37.70;;;18.60;;
64669;SDS011;51080;51.690;5.174;2023-02-18T21:13:10;37.80;;;19.20;;
64669;SDS011;51080;51.690;5.174;2023-02-18T21:18:54;44.10;;;21.00;;
64669;SDS011;51080;51.690;5.174;2023-02-18T21:24:39;43.10;;;20.60;;
64669;SDS011;51080;51.690;5.174;2023-02-18T21:30:24;41.40;;;20.40;;
64669;SDS011;51080;51.690;5.174;2023-02-18T21:36:08;46.50;;;21.70;;
64669;SDS011;51080;51.690;5.174;2023-02-18T21:41:56;46.90;;;21.40;;
64669;SDS011;51080;51.690;5.174;2023-02-18T21:47:44;47.10;;;21.90;;
64669;SDS011;51080;51.690;5.174;2023-02-18T21:53:29;41.20;;;21.60;;
64669;SDS011;51080;51.690;5.174;2023-02-18T21:59:14;40.80;;;21.20;;
64669;SDS011;51080;51.690;5.174;2023-02-18T22:04:59;43.30;;;21.00;;
64669;SDS011;51080;51.690;5.174;2023-02-18T22:10:43;42.00;;;20.50;;
64669;SDS011;51080;51.690;5.174;2023-02-18T22:16:28;38.40;;;20.40;;
64669;SDS011;51080;51.690;5.174;2023-02-18T22:22:13;44.20;;;21.70;;
64669;SDS011;51080;51.690;5.174;2023-02-18T22:27:58;48.90;;;22.50;;
64669;SDS011;51080;51.690;5.174;2023-02-18T22:33:41;47.50;;;21.80;;
64669;SDS011;51080;51.690;5.174;2023-02-18T22:39:26;41.70;;;21.50;;
64669;SDS011;51080;51.690;5.174;2023-02-18T22:45:11;42.50;;;21.60;;
64669;SDS011;51080;51.690;5.174;2023-02-18T22:51:27;38.10;;;20.70;;
64669;SDS011;51080;51.690;5.174;2023-02-18T22:57:13;42.20;;;20.30;;
64669;SDS011;51080;51.690;5.174;2023-02-18T23:02:58;40.50;;;20.20;;
64669;SDS011;51080;51.690;5.174;2023-02-18T23:08:42;37.10;;;20.10;;
64669;SDS011;51080;51.690;5.174;2023-02-18T23:14:27;37.20;;;18.00;;
64669;SDS011;51080;51.690;5.174;2023-02-18T23:20:12;35.10;;;17.00;;
64669;SDS011;51080;51.690;5.174;2023-02-18T23:26:00;31.00;;;13.50;;
64669;SDS011;51080;51.690;5.174;2023-02-18T23:31:44;26.60;;;12.40;;
64669;SDS011;51080;51.690;5.174;2023-02-18T23:37:29;29.20;;;12.20;;
64669;SDS011;51080;51.690;5.174;2023-02-18T23:43:13;29.80;;;11.70;;
64669;SDS011;51080;51.690;5.174;2023-02-18T23:48:58;28.10;;;12.10;;
64669;SDS011;51080;51.690;5.174;2023-02-18T23:54:43;30.80;;;12.40;;
